Salt Lake City, Utah
Traffic Map
Current Weather Conditions
Salt Lake City, Utah
Broken Clouds
Broken Clouds
24°
Feels Like: 24°
Wind Chill: 24° Ceiling: 18000
Heat Index: 24° Visibility: 10mi
Dew Point: 11° Wind: 6mph
Humidity: 43% Direction: 220° (SW)
Pressure: 30.05in Gusts: 0mph
Raw Report DataKSLC 010754Z 22005KT 10SM FEW110 BKN180 24/11 A3005 RMK AO2 SLP115 T02440111
Traffic Incident Summary
Active as of:
Severity:
Category:
InformationThere was an issue retrieving the traffic information for this location. Please try a different location or try again shortly.
Advertisements
Track Severe Weather on mobile